Time;durP1;ratioP1;P1;durP2;ratioP2;P2;SDS_P1;SDS_P2;PMS_P1;PMS_P2;Temp;Humidity;BMP_temperature;BMP_pressure;BME280_temperature;BME280_humidity;BME280_pressure;Samples;Min_cycle;Max_cycle;Signal;HPM_P1;HPM_P2
2023/10/15 00:00:46;;;;;;;;;;;16.90;99.90;;;;;;5077784;28;20003;-74
2023/10/15 00:03:11;;;;;;;;;;;16.90;99.90;;;;;;5078250;28;19948;-73
2023/10/15 00:05:37;;;;;;;;;;;16.90;99.90;;;;;;5078110;28;19954;-74
2023/10/15 00:08:02;;;;;;;;;;;16.80;99.90;;;;;;5077531;28;19908;-74
2023/10/15 00:10:30;;;;;;;;;;;16.80;99.90;;;;;;5077570;28;19908;-75
2023/10/15 00:12:56;;;;;;;;;;;16.70;99.90;;;;;;5076618;28;19958;-76
2023/10/15 00:15:27;;;;;;;;;;;16.70;99.90;;;;;;5077853;28;19912;-74
2023/10/15 00:17:54;;;;;;;;;;;16.70;99.90;;;;;;5077980;28;19915;-73
2023/10/15 00:20:20;;;;;;;;;;;16.70;99.90;;;;;;5077588;28;19920;-76
2023/10/15 00:22:46;;;;;;;;;;;16.60;99.90;;;;;;5076352;28;19955;-75
2023/10/15 00:25:16;;;;;;;;;;;16.60;99.90;;;;;;5077636;28;19912;-75
2023/10/15 00:27:42;;;;;;;;;;;16.60;99.90;;;;;;5077589;28;19913;-75
2023/10/15 00:30:12;;;;;;;;;;;16.50;99.90;;;;;;5077763;28;19915;-76
2023/10/15 00:32:45;;;;;;;;;;;16.50;99.90;;;;;;5071222;28;19920;-77
2023/10/15 00:35:14;;;;;;;;;;;16.60;99.90;;;;;;5076433;28;20269;-79
2023/10/15 00:37:40;;;;;;;;;;;16.50;99.90;;;;;;5075919;28;19939;-76
2023/10/15 00:40:16;;;;;;;;;;;16.50;99.90;;;;;;5076745;28;20460;-76
2023/10/15 00:42:45;;;;;;;;;;;16.40;99.90;;;;;;5077706;28;19908;-74
2023/10/15 00:45:12;;;;;;;;;;;16.40;99.90;;;;;;5077176;28;19912;-76
2023/10/15 00:47:38;;;;;;;;;;;16.40;99.90;;;;;;5077318;28;19909;-76
2023/10/15 00:50:08;;;;;;;;;;;16.40;99.90;;;;;;5077314;28;19908;-76
2023/10/15 00:52:37;;;;;;;;;;;16.30;99.90;;;;;;5077500;28;19913;-77
2023/10/15 00:55:05;;;;;;;;;;;16.30;99.90;;;;;;5075503;28;19995;-75
2023/10/15 00:57:41;;;;;;;;;;;16.20;99.90;;;;;;5077029;28;19916;-75
2023/10/15 01:02:58;;;;;;;;;;;16.10;99.90;;;;;;5073371;28;19946;-81
2023/10/15 01:05:25;;;;;;;;;;;16.00;99.90;;;;;;5076044;28;19919;-76
2023/10/15 01:07:54;;;;;;;;;;;15.90;99.90;;;;;;5075723;28;19935;-79
2023/10/15 01:10:32;;;;;;;;;;;15.90;99.90;;;;;;5076951;28;19916;-78
2023/10/15 01:13:05;;;;;;;;;;;15.80;99.90;;;;;;5074282;28;19920;-76
2023/10/15 01:15:35;;;;;;;;;;;15.70;99.90;;;;;;5076680;28;20050;-76
2023/10/15 01:18:07;;;;;;;;;;;15.70;99.90;;;;;;5076862;28;19908;-78
2023/10/15 01:20:35;;;;;;;;;;;15.60;99.90;;;;;;5075449;28;19920;-77
2023/10/15 01:23:01;;;;;;;;;;;15.60;99.90;;;;;;5076671;28;19919;-75
2023/10/15 01:25:26;;;;;;;;;;;15.60;99.90;;;;;;5075046;28;19912;-75
2023/10/15 01:28:00;;;;;;;;;;;15.50;99.90;;;;;;5076483;28;19960;-74
2023/10/15 01:30:26;;;;;;;;;;;15.40;99.90;;;;;;5074724;28;19995;-75
2023/10/15 01:32:52;;;;;;;;;;;15.40;99.90;;;;;;5074841;28;19927;-76
2023/10/15 01:35:19;;;;;;;;;;;15.30;99.90;;;;;;5076206;28;19913;-75
2023/10/15 01:40:51;;;;;;;;;;;15.20;99.90;;;;;;5057409;28;20007;-74
2023/10/15 01:43:20;;;;;;;;;;;15.20;99.90;;;;;;5076122;28;19919;-75
2023/10/15 01:45:47;;;;;;;;;;;15.20;99.90;;;;;;5074586;28;20455;-74
2023/10/15 01:48:25;;;;;;;;;;;15.10;99.90;;;;;;5075992;28;19917;-74
2023/10/15 01:50:51;;;;;;;;;;;15.10;99.90;;;;;;5076098;28;19955;-75
2023/10/15 01:53:23;;;;;;;;;;;15.00;99.90;;;;;;5075902;28;20003;-74
2023/10/15 01:55:59;;;;;;;;;;;14.90;99.90;;;;;;5076018;28;19908;-74
2023/10/15 01:58:30;;;;;;;;;;;14.80;99.90;;;;;;5075912;28;20693;-75
2023/10/15 02:01:20;;;;;;;;;;;14.70;99.90;;;;;;5075884;28;20269;-74
2023/10/15 02:03:45;;;;;;;;;;;14.70;99.90;;;;;;5072547;28;20010;-74
2023/10/15 02:06:11;;;;;;;;;;;14.60;99.90;;;;;;5074464;28;19912;-76
2023/10/15 02:08:39;;;;;;;;;;;14.50;99.90;;;;;;5075847;28;19909;-76
2023/10/15 02:11:15;;;;;;;;;;;14.50;99.90;;;;;;5075615;28;19916;-75
2023/10/15 02:13:41;;;;;;;;;;;14.40;99.90;;;;;;5075896;28;19916;-74
2023/10/15 02:16:15;;;;;;;;;;;14.40;99.90;;;;;;5075600;28;19908;-73
2023/10/15 02:18:44;;;;;;;;;;;14.40;99.90;;;;;;5074512;28;19912;-73
2023/10/15 02:21:11;;;;;;;;;;;14.30;99.90;;;;;;5075777;28;20387;-74
2023/10/15 02:23:36;;;;;;;;;;;14.30;99.90;;;;;;5074540;28;20276;-73
2023/10/15 02:26:03;;;;;;;;;;;14.30;99.90;;;;;;5075508;28;20006;-75
2023/10/15 02:28:31;;;;;;;;;;;14.30;99.90;;;;;;5074577;28;19919;-74
2023/10/15 02:31:20;;;;;;;;;;;14.30;99.90;;;;;;5075435;28;19960;-75
2023/10/15 02:33:45;;;;;;;;;;;14.30;99.90;;;;;;5075509;28;19925;-75
2023/10/15 02:36:15;;;;;;;;;;;14.30;99.90;;;;;;5075698;28;19927;-74
2023/10/15 02:38:52;;;;;;;;;;;14.40;99.90;;;;;;5075480;28;20288;-74
2023/10/15 02:41:21;;;;;;;;;;;14.40;99.90;;;;;;5075354;28;19916;-75
2023/10/15 02:43:53;;;;;;;;;;;14.30;99.90;;;;;;5075379;28;19912;-74
2023/10/15 02:46:24;;;;;;;;;;;14.30;99.90;;;;;;5075666;28;19919;-75
2023/10/15 02:48:53;;;;;;;;;;;14.30;99.90;;;;;;5068893;28;19908;-74
2023/10/15 02:51:26;;;;;;;;;;;14.30;99.90;;;;;;5074003;28;20661;-74
2023/10/15 02:54:01;;;;;;;;;;;14.30;99.90;;;;;;5075730;28;19912;-75
2023/10/15 02:56:28;;;;;;;;;;;14.30;99.90;;;;;;5075165;28;19974;-74
2023/10/15 02:58:54;;;;;;;;;;;14.30;99.90;;;;;;5075528;28;20550;-76
2023/10/15 03:01:19;;;;;;;;;;;14.30;99.90;;;;;;5074170;28;20021;-74
2023/10/15 03:03:49;;;;;;;;;;;14.30;99.90;;;;;;5075812;28;20361;-74
2023/10/15 03:06:18;;;;;;;;;;;14.30;99.90;;;;;;5072257;28;19969;-74
2023/10/15 03:08:47;;;;;;;;;;;14.30;99.90;;;;;;5073957;28;19915;-75
2023/10/15 03:11:14;;;;;;;;;;;14.30;99.90;;;;;;5074999;28;19908;-74
2023/10/15 03:13:49;;;;;;;;;;;14.30;99.90;;;;;;5075500;28;20686;-74
2023/10/15 03:16:16;;;;;;;;;;;14.30;99.90;;;;;;5075043;28;19923;-75
2023/10/15 03:18:41;;;;;;;;;;;14.30;99.90;;;;;;5075358;28;19908;-74
2023/10/15 03:21:14;;;;;;;;;;;14.30;99.90;;;;;;5073982;28;19999;-75
2023/10/15 03:23:41;;;;;;;;;;;14.30;99.90;;;;;;5074106;28;19966;-74
2023/10/15 03:26:08;;;;;;;;;;;14.30;99.90;;;;;;5074813;28;20403;-75
2023/10/15 03:28:35;;;;;;;;;;;14.30;99.90;;;;;;5073879;28;19908;-75
2023/10/15 03:31:00;;;;;;;;;;;14.30;99.90;;;;;;5068631;28;19931;-76
2023/10/15 03:33:30;;;;;;;;;;;14.20;99.90;;;;;;5073616;28;19913;-74
2023/10/15 03:35:56;;;;;;;;;;;14.30;99.90;;;;;;5070810;28;20277;-75
2023/10/15 03:38:32;;;;;;;;;;;14.30;99.90;;;;;;5078513;28;19908;-75
2023/10/15 03:44:03;;;;;;;;;;;14.20;99.90;;;;;;5068261;28;19942;-74
2023/10/15 03:46:33;;;;;;;;;;;14.20;99.90;;;;;;5069651;28;19920;-75
2023/10/15 03:48:59;;;;;;;;;;;14.20;99.90;;;;;;5078313;28;20015;-75
2023/10/15 03:51:27;;;;;;;;;;;14.10;99.90;;;;;;5077537;28;19913;-75
2023/10/15 03:53:52;;;;;;;;;;;14.10;99.90;;;;;;5078288;28;19912;-76
2023/10/15 03:56:19;;;;;;;;;;;14.10;99.90;;;;;;5078146;28;19934;-75
2023/10/15 03:58:49;;;;;;;;;;;14.10;99.90;;;;;;5078617;28;19988;-77
2023/10/15 04:01:18;;;;;;;;;;;14.10;99.90;;;;;;5076555;28;20021;-74
2023/10/15 04:03:49;;;;;;;;;;;14.10;99.90;;;;;;5078248;28;19908;-75
2023/10/15 04:06:16;;;;;;;;;;;14.00;99.90;;;;;;5078086;28;19967;-75
2023/10/15 04:11:38;;;;;;;;;;;14.00;99.90;;;;;;5077912;28;20390;-74
2023/10/15 04:14:13;;;;;;;;;;;14.00;99.90;;;;;;5077998;28;20372;-75
2023/10/15 04:16:39;;;;;;;;;;;14.00;99.90;;;;;;5076614;28;19912;-74
2023/10/15 04:19:05;;;;;;;;;;;14.00;99.90;;;;;;5078039;28;20071;-74
2023/10/15 04:21:30;;;;;;;;;;;14.00;99.90;;;;;;5078248;28;19909;-74
2023/10/15 04:23:56;;;;;;;;;;;13.90;99.90;;;;;;5077757;28;19952;-77
2023/10/15 04:26:23;;;;;;;;;;;13.90;99.90;;;;;;5077667;28;19968;-74
2023/10/15 04:28:52;;;;;;;;;;;13.90;99.90;;;;;;5077564;28;20348;-76
2023/10/15 04:31:22;;;;;;;;;;;13.90;99.90;;;;;;5077384;28;20355;-75
2023/10/15 04:33:52;;;;;;;;;;;13.90;99.90;;;;;;5077491;28;19934;-74
2023/10/15 04:36:18;;;;;;;;;;;13.80;99.90;;;;;;5077785;28;19909;-75
2023/10/15 04:38:44;;;;;;;;;;;13.80;99.90;;;;;;5077313;28;19961;-74
2023/10/15 04:41:21;;;;;;;;;;;13.80;99.90;;;;;;5075915;28;19966;-74
2023/10/15 04:43:47;;;;;;;;;;;13.80;99.90;;;;;;5077374;28;19909;-75
2023/10/15 04:46:18;;;;;;;;;;;13.80;99.90;;;;;;5075308;28;19912;-76
2023/10/15 04:48:45;;;;;;;;;;;13.80;99.90;;;;;;5069872;28;20380;-73
2023/10/15 04:51:12;;;;;;;;;;;13.80;99.90;;;;;;5076000;28;20383;-74
2023/10/15 04:53:42;;;;;;;;;;;13.70;99.90;;;;;;5075687;28;19928;-74
2023/10/15 04:56:08;;;;;;;;;;;13.70;99.90;;;;;;5075998;28;20332;-75
2023/10/15 04:58:34;;;;;;;;;;;13.70;99.90;;;;;;5077057;28;19959;-73
2023/10/15 05:01:00;;;;;;;;;;;13.70;99.90;;;;;;5075679;28;19908;-73
2023/10/15 05:03:26;;;;;;;;;;;13.60;99.90;;;;;;5076957;28;19916;-74
2023/10/15 05:05:51;;;;;;;;;;;13.60;99.90;;;;;;5076400;28;19923;-73
2023/10/15 05:08:24;;;;;;;;;;;13.60;99.90;;;;;;5075063;28;19920;-73
2023/10/15 05:10:50;;;;;;;;;;;13.60;99.90;;;;;;5076798;28;19909;-73
2023/10/15 05:13:16;;;;;;;;;;;13.60;99.90;;;;;;5076749;28;20408;-74
2023/10/15 05:15:45;;;;;;;;;;;13.70;99.90;;;;;;5076732;28;19909;-74
2023/10/15 05:18:11;;;;;;;;;;;13.60;99.90;;;;;;5076764;28;19912;-73
2023/10/15 05:20:36;;;;;;;;;;;13.60;99.90;;;;;;5076691;28;19909;-74
2023/10/15 05:23:02;;;;;;;;;;;13.60;99.90;;;;;;5074740;28;19916;-74
2023/10/15 05:25:28;;;;;;;;;;;13.60;99.90;;;;;;5075445;28;19917;-75
2023/10/15 05:27:53;;;;;;;;;;;13.60;99.90;;;;;;5076362;28;19913;-75
2023/10/15 05:30:19;;;;;;;;;;;13.60;99.90;;;;;;5076184;28;19908;-74
2023/10/15 05:32:45;;;;;;;;;;;13.60;99.90;;;;;;5074726;28;19934;-74
2023/10/15 05:35:11;;;;;;;;;;;13.60;99.90;;;;;;5074944;28;19910;-76
2023/10/15 05:37:39;;;;;;;;;;;13.60;99.90;;;;;;5075983;28;19939;-75
2023/10/15 05:40:05;;;;;;;;;;;13.60;99.90;;;;;;5074631;28;19958;-74
2023/10/15 05:42:31;;;;;;;;;;;13.60;99.90;;;;;;5074700;28;19966;-74
2023/10/15 05:44:56;;;;;;;;;;;13.60;99.90;;;;;;5076225;28;19912;-74
2023/10/15 05:47:22;;;;;;;;;;;13.60;99.90;;;;;;5075043;28;19908;-74
2023/10/15 05:49:48;;;;;;;;;;;13.50;99.90;;;;;;5076279;28;20347;-74
2023/10/15 05:52:14;;;;;;;;;;;13.50;99.90;;;;;;5075949;28;19912;-75
2023/10/15 05:54:40;;;;;;;;;;;13.50;99.90;;;;;;5075927;28;19916;-74
2023/10/15 05:57:10;;;;;;;;;;;13.50;99.90;;;;;;5075881;28;19917;-75
2023/10/15 05:59:36;;;;;;;;;;;13.50;99.90;;;;;;5074238;28;19912;-75
2023/10/15 06:02:02;;;;;;;;;;;13.40;99.90;;;;;;5076299;28;19915;-75
2023/10/15 06:04:27;;;;;;;;;;;13.40;99.90;;;;;;5074632;28;19919;-75
2023/10/15 06:06:53;;;;;;;;;;;13.30;99.90;;;;;;5074592;28;19954;-75
2023/10/15 06:09:19;;;;;;;;;;;13.30;99.90;;;;;;5074323;28;19908;-75
2023/10/15 06:11:45;;;;;;;;;;;13.20;99.90;;;;;;5075680;28;19982;-74
2023/10/15 06:14:10;;;;;;;;;;;13.10;99.90;;;;;;5074480;28;20007;-74
2023/10/15 06:16:36;;;;;;;;;;;13.10;99.90;;;;;;5075715;28;19915;-73
2023/10/15 06:19:02;;;;;;;;;;;13.00;99.90;;;;;;5075570;28;19944;-74
2023/10/15 06:21:28;;;;;;;;;;;12.90;99.90;;;;;;5075910;28;19913;-74
2023/10/15 06:23:53;;;;;;;;;;;12.90;99.90;;;;;;5075635;28;20429;-74
2023/10/15 06:26:19;;;;;;;;;;;12.90;99.90;;;;;;5074547;28;19908;-75
2023/10/15 06:28:44;;;;;;;;;;;12.90;99.90;;;;;;5075816;28;20058;-73
2023/10/15 06:31:10;;;;;;;;;;;12.80;99.90;;;;;;5075427;28;19926;-73
2023/10/15 06:33:40;;;;;;;;;;;12.90;99.90;;;;;;5074036;28;19996;-73
2023/10/15 06:36:06;;;;;;;;;;;12.90;99.90;;;;;;5075654;28;20377;-74
2023/10/15 06:38:31;;;;;;;;;;;12.90;99.90;;;;;;5075404;28;20014;-74
2023/10/15 06:40:57;;;;;;;;;;;12.90;99.90;;;;;;5075537;28;20022;-74
2023/10/15 06:43:23;;;;;;;;;;;12.90;99.90;;;;;;5075582;28;19920;-73
2023/10/15 06:45:51;;;;;;;;;;;12.90;99.90;;;;;;5075273;28;19916;-74
2023/10/15 06:48:17;;;;;;;;;;;12.90;99.90;;;;;;5075330;28;19915;-73
2023/10/15 06:50:43;;;;;;;;;;;12.80;99.90;;;;;;5075474;28;19908;-74
2023/10/15 06:53:08;;;;;;;;;;;12.90;99.90;;;;;;5075668;28;19916;-74
2023/10/15 06:55:35;;;;;;;;;;;12.80;99.90;;;;;;5075328;28;19913;-74
2023/10/15 06:58:01;;;;;;;;;;;12.90;99.90;;;;;;5075755;28;19908;-74
2023/10/15 07:00:27;;;;;;;;;;;12.90;99.90;;;;;;5075364;28;20365;-75
2023/10/15 07:02:53;;;;;;;;;;;12.90;99.90;;;;;;5075464;28;19908;-74
2023/10/15 07:05:25;;;;;;;;;;;12.90;99.90;;;;;;5075437;28;19987;-74
2023/10/15 07:07:51;;;;;;;;;;;12.90;99.90;;;;;;5075086;28;20300;-74
2023/10/15 07:10:17;;;;;;;;;;;12.90;99.90;;;;;;5075016;28;19995;-74
2023/10/15 07:12:47;;;;;;;;;;;12.90;99.90;;;;;;5079100;28;20027;-75
2023/10/15 07:15:13;;;;;;;;;;;12.90;99.90;;;;;;5079308;28;20412;-74
2023/10/15 07:17:39;;;;;;;;;;;13.00;99.90;;;;;;5079335;28;19982;-75
2023/10/15 07:20:14;;;;;;;;;;;13.10;99.90;;;;;;5079039;28;20157;-73
2023/10/15 07:22:43;;;;;;;;;;;13.20;99.90;;;;;;5077570;28;19908;-74
2023/10/15 07:25:10;;;;;;;;;;;13.30;99.90;;;;;;5078752;28;20273;-73
2023/10/15 07:27:36;;;;;;;;;;;13.40;99.90;;;;;;5078572;28;19948;-75
2023/10/15 07:30:02;;;;;;;;;;;13.40;99.90;;;;;;5078630;28;19933;-74
2023/10/15 07:32:27;;;;;;;;;;;13.40;99.90;;;;;;5077171;28;19924;-74
2023/10/15 07:34:53;;;;;;;;;;;13.40;99.90;;;;;;5078583;28;19908;-73
2023/10/15 07:37:19;;;;;;;;;;;13.40;99.90;;;;;;5078817;28;19908;-74
2023/10/15 07:39:45;;;;;;;;;;;13.40;99.90;;;;;;5078216;28;19912;-75
2023/10/15 07:42:11;;;;;;;;;;;13.50;99.90;;;;;;5078563;28;19915;-76
2023/10/15 07:44:36;;;;;;;;;;;13.60;99.90;;;;;;5076789;28;19935;-75
2023/10/15 07:47:04;;;;;;;;;;;13.60;99.90;;;;;;5077470;28;19908;-75
2023/10/15 07:49:31;;;;;;;;;;;13.70;99.90;;;;;;5078775;28;19909;-75
2023/10/15 07:51:57;;;;;;;;;;;13.80;99.90;;;;;;5077041;28;20363;-75
2023/10/15 07:54:22;;;;;;;;;;;13.80;99.90;;;;;;5078214;28;19913;-76
2023/10/15 07:56:48;;;;;;;;;;;13.90;99.90;;;;;;5076689;28;19919;-75
2023/10/15 07:59:14;;;;;;;;;;;13.90;99.90;;;;;;5078409;28;19913;-76
2023/10/15 08:01:40;;;;;;;;;;;13.80;99.90;;;;;;5076574;28;19908;-77
2023/10/15 08:04:09;;;;;;;;;;;13.80;99.90;;;;;;5077640;28;19916;-76
2023/10/15 08:06:34;;;;;;;;;;;13.80;99.90;;;;;;5078124;28;19912;-75
2023/10/15 08:09:00;;;;;;;;;;;13.70;99.90;;;;;;5077172;28;19931;-76
2023/10/15 08:11:26;;;;;;;;;;;13.80;99.90;;;;;;5077454;28;20388;-75
2023/10/15 08:13:51;;;;;;;;;;;13.80;99.90;;;;;;5078120;28;20048;-77
2023/10/15 08:16:18;;;;;;;;;;;13.90;99.90;;;;;;5077514;28;20414;-75
2023/10/15 08:18:44;;;;;;;;;;;13.80;99.90;;;;;;5077948;28;19913;-75
2023/10/15 08:21:11;;;;;;;;;;;13.80;99.90;;;;;;5077611;28;19956;-76
2023/10/15 08:23:38;;;;;;;;;;;13.80;99.90;;;;;;5077910;28;19951;-77
2023/10/15 08:26:05;;;;;;;;;;;13.80;99.90;;;;;;5077823;28;19961;-79
2023/10/15 08:28:31;;;;;;;;;;;13.90;99.90;;;;;;5078123;28;19931;-75
2023/10/15 08:30:57;;;;;;;;;;;14.00;99.90;;;;;;5077410;28;19924;-75
2023/10/15 08:33:23;;;;;;;;;;;14.10;99.90;;;;;;5077597;28;19958;-74
2023/10/15 08:35:49;;;;;;;;;;;14.10;99.90;;;;;;5077638;28;19916;-75
2023/10/15 08:38:15;;;;;;;;;;;14.30;99.90;;;;;;5077576;28;20020;-74
2023/10/15 08:40:44;;;;;;;;;;;14.40;99.90;;;;;;5077391;28;20371;-76
2023/10/15 08:43:20;;;;;;;;;;;14.40;99.90;;;;;;5077530;28;19923;-75
2023/10/15 08:45:46;;;;;;;;;;;14.40;99.90;;;;;;5077215;28;19909;-76
2023/10/15 08:48:12;;;;;;;;;;;14.50;99.90;;;;;;5077621;28;20065;-77
2023/10/15 08:50:38;;;;;;;;;;;14.50;99.90;;;;;;5075977;28;19958;-75
2023/10/15 08:53:09;;;;;;;;;;;14.60;99.90;;;;;;5077197;28;19995;-76
2023/10/15 08:55:36;;;;;;;;;;;14.60;99.90;;;;;;5076952;28;19912;-77
2023/10/15 08:58:01;;;;;;;;;;;14.70;99.90;;;;;;5075914;28;19915;-76
2023/10/15 09:00:28;;;;;;;;;;;14.70;99.90;;;;;;5075719;28;19912;-78
2023/10/15 09:02:56;;;;;;;;;;;14.80;99.90;;;;;;5077129;28;19912;-76
2023/10/15 09:05:24;;;;;;;;;;;14.80;99.90;;;;;;5076941;28;19908;-75
2023/10/15 09:07:52;;;;;;;;;;;14.90;99.90;;;;;;5077111;28;19919;-76
2023/10/15 09:10:17;;;;;;;;;;;14.90;99.90;;;;;;5076652;28;19909;-75
2023/10/15 09:12:43;;;;;;;;;;;14.90;99.90;;;;;;5076828;28;20288;-76
2023/10/15 09:15:16;;;;;;;;;;;15.00;99.90;;;;;;5076521;28;19958;-75
2023/10/15 09:17:56;;;;;;;;;;;15.00;99.90;;;;;;5077041;28;20459;-74
2023/10/15 09:20:32;;;;;;;;;;;15.10;99.90;;;;;;5079738;28;19951;-74
2023/10/15 09:22:59;;;;;;;;;;;15.20;99.90;;;;;;5074943;28;19944;-75
2023/10/15 09:25:27;;;;;;;;;;;15.20;99.90;;;;;;5075114;28;19915;-74
2023/10/15 09:27:53;;;;;;;;;;;15.20;99.90;;;;;;5076136;28;19963;-75
2023/10/15 09:30:26;;;;;;;;;;;15.20;99.90;;;;;;5075154;28;20364;-74
2023/10/15 09:32:52;;;;;;;;;;;15.30;99.90;;;;;;5075531;28;19921;-76
2023/10/15 09:35:19;;;;;;;;;;;15.20;99.90;;;;;;5075299;28;19916;-76
2023/10/15 09:37:45;;;;;;;;;;;15.20;99.90;;;;;;5076223;28;19915;-75
2023/10/15 09:40:22;;;;;;;;;;;15.30;99.90;;;;;;5076345;28;20333;-75
2023/10/15 09:42:49;;;;;;;;;;;15.20;99.90;;;;;;5076150;28;19909;-75
2023/10/15 09:45:18;;;;;;;;;;;15.20;99.90;;;;;;5076197;28;19934;-77
2023/10/15 09:47:52;;;;;;;;;;;15.20;99.90;;;;;;5075946;28;19985;-76
2023/10/15 09:50:20;;;;;;;;;;;15.20;99.90;;;;;;5076244;28;20328;-75
2023/10/15 09:52:57;;;;;;;;;;;15.20;99.90;;;;;;5075564;28;20482;-78
2023/10/15 09:55:28;;;;;;;;;;;15.20;99.90;;;;;;5075687;28;20404;-74
2023/10/15 09:57:57;;;;;;;;;;;15.30;99.90;;;;;;5076164;28;19962;-76
2023/10/15 10:00:46;;;;;;;;;;;15.40;99.90;;;;;;5075978;28;20407;-75
2023/10/15 10:03:22;;;;;;;;;;;15.50;99.90;;;;;;5076015;28;19908;-73
2023/10/15 10:05:57;;;;;;;;;;;15.80;99.90;;;;;;5063367;28;19912;-73
2023/10/15 10:08:41;;;;;;;;;;;16.00;99.90;;;;;;5075757;28;19966;-74
2023/10/15 10:11:15;;;;;;;;;;;16.50;99.90;;;;;;5074458;28;19912;-75
2023/10/15 10:14:02;;;;;;;;;;;16.80;99.90;;;;;;5074836;28;20280;-74
2023/10/15 10:16:28;;;;;;;;;;;16.90;99.90;;;;;;5075771;28;19940;-75
2023/10/15 10:18:55;;;;;;;;;;;16.80;99.90;;;;;;5075064;28;19916;-74
2023/10/15 10:21:22;;;;;;;;;;;16.80;99.90;;;;;;5075797;28;19912;-77
2023/10/15 10:23:52;;;;;;;;;;;16.80;99.90;;;;;;5076237;28;19966;-74
2023/10/15 10:26:19;;;;;;;;;;;16.90;99.90;;;;;;5074579;28;19919;-75
2023/10/15 10:28:46;;;;;;;;;;;17.10;99.90;;;;;;5075741;28;19974;-77
2023/10/15 10:31:13;;;;;;;;;;;17.00;99.90;;;;;;5075581;28;19990;-76
2023/10/15 10:33:45;;;;;;;;;;;17.00;99.90;;;;;;5080149;28;20426;-78
2023/10/15 10:36:12;;;;;;;;;;;16.90;99.90;;;;;;5075672;28;19917;-76
2023/10/15 10:38:39;;;;;;;;;;;16.80;99.90;;;;;;5075858;28;20390;-75
2023/10/15 10:41:06;;;;;;;;;;;16.80;99.90;;;;;;5075492;28;20360;-75
2023/10/15 10:43:33;;;;;;;;;;;16.90;99.90;;;;;;5075687;28;19915;-75
2023/10/15 10:46:02;;;;;;;;;;;16.90;99.90;;;;;;5078984;28;19912;-75
2023/10/15 10:48:28;;;;;;;;;;;17.10;99.90;;;;;;5078541;28;19908;-74
2023/10/15 10:51:13;;;;;;;;;;;17.30;99.90;;;;;;5079361;28;19991;-74
2023/10/15 10:53:57;;;;;;;;;;;17.40;99.90;;;;;;5071697;28;19921;-75
2023/10/15 10:56:42;;;;;;;;;;;17.60;99.90;;;;;;5079037;28;20003;-76
2023/10/15 10:59:09;;;;;;;;;;;17.90;99.90;;;;;;5075007;28;19909;-75
2023/10/15 11:01:37;;;;;;;;;;;17.80;99.90;;;;;;5079411;28;20342;-74
2023/10/15 11:04:03;;;;;;;;;;;17.60;99.90;;;;;;5079255;28;19908;-74
2023/10/15 11:06:29;;;;;;;;;;;17.60;99.90;;;;;;5079239;28;19913;-74
2023/10/15 11:08:54;;;;;;;;;;;17.50;99.90;;;;;;5078827;28;20050;-74
2023/10/15 11:11:20;;;;;;;;;;;17.50;99.90;;;;;;5078625;28;19912;-74
2023/10/15 11:13:49;;;;;;;;;;;17.50;99.90;;;;;;5077469;28;19917;-75
2023/10/15 11:16:15;;;;;;;;;;;17.60;99.90;;;;;;5077709;28;19912;-75
2023/10/15 11:18:45;;;;;;;;;;;17.80;99.90;;;;;;5077577;28;19943;-74
2023/10/15 11:21:10;;;;;;;;;;;17.60;99.90;;;;;;5079245;28;20380;-74
2023/10/15 11:23:36;;;;;;;;;;;17.60;99.90;;;;;;5078392;28;20215;-74
2023/10/15 11:26:01;;;;;;;;;;;17.70;99.90;;;;;;5075949;28;19913;-74
2023/10/15 11:28:27;;;;;;;;;;;17.60;99.90;;;;;;5078308;28;19966;-73
2023/10/15 11:30:53;;;;;;;;;;;17.50;99.90;;;;;;5078527;28;20328;-73
2023/10/15 11:33:19;;;;;;;;;;;17.40;99.90;;;;;;5078194;28;19916;-74
2023/10/15 11:35:53;;;;;;;;;;;17.30;99.90;;;;;;5078687;28;19913;-73
2023/10/15 11:38:20;;;;;;;;;;;17.50;99.90;;;;;;5078358;28;19908;-74
2023/10/15 11:40:46;;;;;;;;;;;17.50;99.90;;;;;;5078407;28;19915;-73
2023/10/15 11:43:18;;;;;;;;;;;17.60;99.90;;;;;;5078151;28;19916;-74
2023/10/15 11:45:46;;;;;;;;;;;17.60;99.90;;;;;;5078182;28;19934;-74
2023/10/15 11:48:13;;;;;;;;;;;17.50;99.90;;;;;;5078476;28;19916;-75
2023/10/15 11:50:41;;;;;;;;;;;17.50;99.90;;;;;;5078215;28;19913;-75
2023/10/15 11:53:16;;;;;;;;;;;17.60;99.90;;;;;;5077981;28;19918;-74
2023/10/15 11:55:47;;;;;;;;;;;17.60;99.90;;;;;;5077196;28;19999;-75
2023/10/15 11:58:16;;;;;;;;;;;17.70;99.90;;;;;;5075963;28;20305;-73
2023/10/15 12:00:42;;;;;;;;;;;17.70;99.90;;;;;;5076548;28;19915;-74
2023/10/15 12:03:09;;;;;;;;;;;18.00;99.90;;;;;;5076756;28;19953;-75
2023/10/15 12:05:37;;;;;;;;;;;18.30;99.90;;;;;;5077948;28;20050;-74
2023/10/15 12:08:03;;;;;;;;;;;18.30;99.90;;;;;;5077930;28;19909;-75
2023/10/15 12:10:29;;;;;;;;;;;18.00;99.90;;;;;;5076528;28;19913;-73
2023/10/15 12:12:55;;;;;;;;;;;17.80;99.90;;;;;;5077394;28;20313;-75
2023/10/15 12:15:21;;;;;;;;;;;17.70;99.90;;;;;;5076778;28;19951;-74
2023/10/15 12:17:46;;;;;;;;;;;17.50;99.90;;;;;;5077794;28;19908;-76
2023/10/15 12:20:18;;;;;;;;;;;17.50;99.90;;;;;;5078040;28;19931;-74
2023/10/15 12:22:44;;;;;;;;;;;17.50;99.90;;;;;;5077801;28;20023;-73
2023/10/15 12:25:09;;;;;;;;;;;17.50;99.90;;;;;;5076433;28;19954;-75
2023/10/15 12:27:36;;;;;;;;;;;17.60;99.90;;;;;;5078187;28;19909;-78
2023/10/15 12:30:04;;;;;;;;;;;17.70;99.90;;;;;;5077021;28;19908;-75
2023/10/15 12:32:30;;;;;;;;;;;17.80;99.90;;;;;;5077385;28;20012;-74
2023/10/15 12:34:55;;;;;;;;;;;17.90;99.90;;;;;;5077549;28;19978;-73
2023/10/15 12:37:24;;;;;;;;;;;18.00;99.90;;;;;;5077538;28;19920;-73
2023/10/15 12:39:52;;;;;;;;;;;18.20;99.90;;;;;;5076949;28;19923;-73
2023/10/15 12:42:18;;;;;;;;;;;18.40;99.90;;;;;;5075809;28;19916;-73
2023/10/15 12:44:46;;;;;;;;;;;18.60;99.90;;;;;;5077256;28;19934;-73
2023/10/15 12:47:12;;;;;;;;;;;18.60;99.90;;;;;;5075850;28;19912;-74
2023/10/15 12:49:37;;;;;;;;;;;18.60;99.90;;;;;;5076074;28;19909;-74
2023/10/15 12:52:03;;;;;;;;;;;18.70;99.90;;;;;;5077230;28;19999;-75
2023/10/15 12:54:29;;;;;;;;;;;18.90;99.90;;;;;;5077070;28;19934;-74
2023/10/15 12:56:58;;;;;;;;;;;18.90;99.90;;;;;;5076084;28;19948;-75
2023/10/15 12:59:24;;;;;;;;;;;18.90;99.90;;;;;;5076928;28;19935;-74
2023/10/15 13:01:50;;;;;;;;;;;18.80;99.90;;;;;;5074922;28;19912;-74
2023/10/15 13:04:16;;;;;;;;;;;18.90;99.90;;;;;;5077103;28;19920;-75
2023/10/15 13:06:42;;;;;;;;;;;19.10;99.90;;;;;;5075659;28;19917;-74
2023/10/15 13:09:18;;;;;;;;;;;19.00;99.90;;;;;;5074177;28;19999;-74
2023/10/15 13:11:44;;;;;;;;;;;18.90;99.90;;;;;;5076592;28;19919;-75
2023/10/15 13:14:10;;;;;;;;;;;18.70;99.90;;;;;;5076937;28;19942;-74
2023/10/15 13:16:35;;;;;;;;;;;18.70;99.90;;;;;;5075327;28;20396;-75
2023/10/15 13:19:04;;;;;;;;;;;18.60;99.90;;;;;;5076813;28;19916;-74
2023/10/15 13:21:30;;;;;;;;;;;18.60;99.90;;;;;;5075197;28;19917;-75
2023/10/15 13:23:57;;;;;;;;;;;18.60;99.40;;;;;;5076662;28;19960;-75
2023/10/15 13:26:24;;;;;;;;;;;18.50;99.90;;;;;;5076424;28;19912;-75
2023/10/15 13:28:58;;;;;;;;;;;18.70;99.90;;;;;;5113749;27;19930;-76
2023/10/15 13:31:24;;;;;;;;;;;18.70;99.90;;;;;;5108111;28;20003;-74
2023/10/15 13:33:49;;;;;;;;;;;18.80;99.90;;;;;;5108442;28;19998;-74
2023/10/15 13:36:15;;;;;;;;;;;18.80;99.90;;;;;;5101610;28;20008;-75
2023/10/15 13:38:43;;;;;;;;;;;18.90;98.50;;;;;;5095924;28;19913;-74
2023/10/15 13:41:09;;;;;;;;;;;18.80;98.20;;;;;;5094582;28;19987;-74
2023/10/15 13:43:35;;;;;;;;;;;18.70;98.50;;;;;;5101912;28;20332;-74
2023/10/15 13:46:01;;;;;;;;;;;18.70;98.50;;;;;;5100182;28;19912;-79
2023/10/15 13:48:30;;;;;;;;;;;18.80;98.20;;;;;;5100786;28;19957;-77
2023/10/15 13:50:55;;;;;;;;;;;18.70;97.40;;;;;;5101777;28;19968;-77
2023/10/15 13:53:21;;;;;;;;;;;18.80;98.50;;;;;;5095177;28;19993;-77
2023/10/15 13:55:46;;;;;;;;;;;18.90;98.30;;;;;;5096857;28;20399;-76
2023/10/15 13:58:12;;;;;;;;;;;19.00;97.70;;;;;;5094937;28;20432;-80
2023/10/15 14:00:37;;;;;;;;;;;19.10;98.40;;;;;;5096797;28;19961;-78
2023/10/15 14:03:04;;;;;;;;;;;19.20;96.80;;;;;;5093658;28;20433;-80
2023/10/15 14:05:32;;;;;;;;;;;19.20;95.80;;;;;;5102258;28;19912;-77
2023/10/15 14:07:58;;;;;;;;;;;19.20;95.00;;;;;;5107671;28;20303;-79
2023/10/15 14:10:24;;;;;;;;;;;19.00;94.60;;;;;;5099169;28;19961;-78
2023/10/15 14:12:50;;;;;;;;;;;19.00;94.70;;;;;;5102161;28;19908;-77
2023/10/15 14:15:18;;;;;;;;;;;19.00;96.70;;;;;;5100674;28;19909;-77
2023/10/15 14:17:45;;;;;;;;;;;19.10;95.60;;;;;;5102888;28;20106;-78
2023/10/15 14:20:14;;;;;;;;;;;19.00;97.00;;;;;;5107381;28;19909;-79
2023/10/15 14:22:46;;;;;;;;;;;19.10;96.30;;;;;;5095447;28;19912;-77
2023/10/15 14:25:12;;;;;;;;;;;19.20;97.50;;;;;;5092135;28;19908;-79
2023/10/15 14:27:38;;;;;;;;;;;19.10;96.60;;;;;;5101916;28;20013;-77
2023/10/15 14:30:07;;;;;;;;;;;19.10;96.90;;;;;;5097830;28;20396;-77
2023/10/15 14:32:36;;;;;;;;;;;19.10;96.30;;;;;;5135653;27;19938;-78